Nathaniel B. Palmer — WBP3210 — position and weather

sailwx.info

Track history (hours):
 
Tides and Currents Weather Stations Pressure Air Temp Water Temp Dewpoint Dewpoint Depression Visibility Wind Speed Wind Dir Waves Ship Positions

Oceanographic research ship Nathaniel B. Palmer (USA)

Contact: Ethan Norris, ethan.norris.contractor@usap.gov

Detailed information on ship capabilities available from University of Delaware's Ocean Information Center and ARCUS's ALIAS (Arctic Logistics Information and Support) project.

Owner: OFFSHORE SERVICE VESSELS, GALLIANO, LA. More information available from US FCC via Universal Licensing System and Coast Guard Vessel Documentation Center.

Last reported at 2017-Jan-18 17:00 UTC. Time now 2017-Jan-18 18:03 UTC.
Position S 77°48' E 166°30'.

Type: Other ship. MMSI: 366610000.

Wind from 180 at 3 knots

Barometer 1003.5 mb
Air temperature -7.1 ° C
Water temperature -1.4 ° C

Date/timePositionNaut miles runAvg speedWind from/ knotsBaromVisibWave heightAir tempDewpointWater temp
2017-Jan-18 17:00S 77°48' E 166°30'0 0.0 180 / 31003.5 -7.1 -1.4
2017-Jan-18 16:00S 77°48' E 166°30'0 0.0 350 / 11003.7 -6.5 -1.4
2017-Jan-18 15:00S 77°48' E 166°30'0 0.0 300 / 41003.8 -7.2 -1.4
2017-Jan-18 14:00S 77°48' E 166°30'0 0.0 080 / 71003.9 -3.9 -1.4
2017-Jan-18 13:00S 77°48' E 166°30'0 0.0 080 / 91004.2 -4.3 -1.4
2017-Jan-18 12:00S 77°48' E 166°30'0 0.0 080 / 101004.2 -4.3 -1.4
2017-Jan-18 11:00S 77°48' E 166°30'0 0.0 080 / 111004.2 -4.2 -1.4
2017-Jan-18 10:00S 77°48' E 166°30'0 0.0 080 / 101004.3 -4.1 -1.4
2017-Jan-18 09:00S 77°48' E 166°30'0 0.0 080 / 121004.3 -4.4 -1.4
2017-Jan-18 08:00S 77°48' E 166°30'1 1.3 090 / 151004.0 -4.5 -1.4
2017-Jan-18 07:00S 77°48' E 166°24'6 6.1 080 / 101004.6 -4.8 -1.4
2017-Jan-18 06:00S 77°42' E 166°18'1 1.3 080 / 131004.7 -5.4 -1.4
2017-Jan-18 05:00S 77°42' E 166°12'1 1.3 080 / 141004.6 -5.3 -1.4
2017-Jan-18 04:00S 77°42' E 166°06'1 1.3 100 / 141004.7 -5.1 -1.4
2017-Jan-18 03:00S 77°42' E 166°00'7 6.5 110 / 171004.7 -4.8 -1.4
2017-Jan-18 02:00S 77°36' E 165°48'6 6.1 120 / 181004.8 -4.8 -1.4
2017-Jan-18 01:00S 77°30' E 165°42'6 6.0 130 / 201004.7 -4.7 -1.4
2017-Jan-18 00:00S 77°24' E 165°42'0 0.0 140 / 201004.2 -4.2 -1.4
2017-Jan-17 23:00S 77°24' E 165°42'6 6.0 340 / 51005.1 -3.2 -1.4
2017-Jan-17 22:00S 77°18' E 165°42'6 6.0 010 / 71005.0 -2.2 -1.4
2017-Jan-17 21:00S 77°12' E 165°42'1 1.3 350 / 41005.1 -2.8 -1.4
2017-Jan-17 20:00S 77°12' E 165°48'7 6.6 1005.5 -3.7 -1.4
2017-Jan-17 19:00S 77°06' E 166°00'4 4.0 050 / 71005.3 -4.3 -1.4
2017-Jan-17 18:00S 77°06' E 166°18'7 6.6 060 / 41005.0 -3.1 -1.5
2017-Jan-17 17:00S 77°00' E 166°30'3 2.7 080 / 31005.0 -3.5 -1.5
2017-Jan-17 16:00S 77°00' E 166°42'3 2.7 100 / 21005.1 -4.1 -1.4
2017-Jan-17 15:00S 77°00' E 166°54'5 5.4 070 / 31005.3 -4.0 -1.3
2017-Jan-17 14:00S 77°00' E 167°18'1 1.3 100 / 41005.4 -3.6 -1.4
2017-Jan-17 13:00S 77°00' E 167°24'1 1.3 110 / 51005.5 -3.1 -1.2
2017-Jan-17 12:00S 77°00' E 167°18'6 6.0 130 / 61005.6 -3.3 -1.1
2017-Jan-17 11:00S 76°54' E 167°18'3 2.7 150 / 41005.5 -3.3 -1.3
2017-Jan-17 10:00S 76°54' E 167°30'5 5.4 120 / 41005.3 -2.6 -1.3
2017-Jan-17 09:00S 76°54' E 167°54'7 7.2 130 / 51004.9 -2.1 -1.6
2017-Jan-17 08:00S 77°00' E 168°12'6 6.1 120 / 51004.8 -1.9 -1.5
2017-Jan-17 07:00S 77°06' E 168°18'4 4.0 120 / 41004.6 -1.8 -1.6
2017-Jan-17 06:00S 77°06' E 168°36'9 9.4 130 / 41004.4 -1.4 -0.3
2017-Jan-17 05:00S 77°06' E 169°18'1212.2 130 / 31004.3 -1.7 0.3
2017-Jan-17 04:00S 77°12' E 170°06'1110.6 130 / 51004.0 -2.1 0.2
2017-Jan-17 03:00S 77°12' E 170°54'1212.2 140 / 41004.1 -3.2 -0.2
2017-Jan-17 02:00S 77°18' E 171°42'1110.6 150 / 51004.1 -4.2 -0.1
2017-Jan-17 01:00S 77°18' E 172°30'1110.6 150 / 61004.1 -6.1 -0.3
2017-Jan-17 00:00S 77°18' E 173°18'1313.3 140 / 61004.0 -8.2 -0.6
2017-Jan-16 23:00S 77°24' E 174°12'1211.8 150 / 71003.7 -9.3 -0.5
2017-Jan-16 22:00S 77°24' E 175°06'1313.2 150 / 91003.6 -9.9 -0.3
2017-Jan-16 21:00S 77°30' E 176°00'1110.9 150 / 81003.6 -9.2 -0.5
2017-Jan-16 20:00S 77°36' E 176°42'1010.3 130 / 71003.6 -9.5 -0.7
2017-Jan-16 19:00S 77°36' E 177°30'8 7.9 150 / 61003.2 -10.7 -0.5
2017-Jan-16 18:00S 77°42' E 177°54'7 7.1 140 / 61002.8 -11.2 -0.6
2017-Jan-16 17:00S 77°36' E 178°12'1313.1 140 / 81001.6 -9.0 -0.4
2017-Jan-16 16:00S 77°24' E 178°36'7 7.2 150 / 91000.9 -7.0 -0.4
2017-Jan-16 15:00S 77°18' E 178°54'3812.5 180 / 81000.9 -4.3 -0.3
2017-Jan-16 12:00S 76°42' E 179°42'869868.7 220 / 81000.6 -1.7 0.2
2017-Jan-16 11:00S 76°36' W 117°36'868868.5 220 / 51000.4 -1.5 0.3
2017-Jan-16 10:00S 76°24' W 179°36'1312.7 200 / 31000.0 -0.8 0.3
2017-Jan-16 09:00S 76°12' W 179°18'1312.8 120 / 5999.4 -0.8 0.2
2017-Jan-16 08:00S 76°00' W 179°00'7 6.7 110 / 8999.0 -0.8 0.1
2017-Jan-16 07:00S 75°54' W 178°48'6 5.8 120 / 8999.1 -0.7 0.1
2017-Jan-16 06:00S 75°54' W 178°24'1211.7 120 / 9998.7 -1.0 -0.0
2017-Jan-16 05:00S 75°54' W 177°36'1010.2 110 / 9998.6 -0.8 -0.0
2017-Jan-16 04:00S 75°54' W 176°54'1211.7 110 / 10998.5 -0.7 -0.0
2017-Jan-16 03:00S 75°54' W 176°06'1211.7 120 / 11998.4 -0.8 -0.2
2017-Jan-16 02:00S 75°54' W 175°18'1010.2 120 / 11998.3 -0.8 -0.3
2017-Jan-16 01:00S 75°54' W 174°36'6 5.8 130 / 12998.2 -1.3 -0.3
2017-Jan-16 00:00S 75°54' W 174°12'6 6.0 130 / 11998.1 -1.4 -0.7
2017-Jan-15 23:00S 76°00' W 174°12'1212.0 130 / 13998.1 -1.7 -0.6
2017-Jan-15 22:00S 76°12' W 174°12'1212.0 130 / 14998.1 -1.7 -0.6
2017-Jan-15 21:00S 76°24' W 174°12'1212.0 140 / 15998.1 -1.6 -0.4
2017-Jan-15 20:00S 76°36' W 174°12'6 6.0 140 / 15998.1 -1.4 -0.2
2017-Jan-15 19:00S 76°42' W 174°12'1212.1 150 / 16998.2 -1.4 -0.1
2017-Jan-15 18:00S 76°54' W 174°06'1212.0 150 / 16998.2 -1.4 -0.2
2017-Jan-15 17:00S 77°06' W 174°06'1212.0 150 / 15998.4 -1.5 -0.1
2017-Jan-15 16:00S 77°18' W 174°06'65 8.2 150 / 15998.7 -1.7 -0.1
2017-Jan-15 08:00S 78°12' W 171°12'1413.6 170 / 19999.7 -6.7 -0.0
2017-Jan-15 07:00S 78°18' W 170°12'9 8.5 170 / 17999.4 -6.5 -0.1
2017-Jan-15 06:00S 78°18' W 169°30'5 4.9 170 / 19999.3 -6.5 -0.3
2017-Jan-15 05:00S 78°18' W 169°06'1010.4 160 / 24998.1 -5.0 -0.0
2017-Jan-15 04:00S 78°12' W 168°24'1312.6 150 / 21998.6 -4.1 -0.0
2017-Jan-15 03:00S 78°06' W 167°30'1111.1 150 / 17998.8 -3.3 -0.0
2017-Jan-15 02:00S 78°06' W 166°36'1111.1 130 / 17998.9 -2.8 -0.1
2017-Jan-15 01:00S 78°06' W 165°42'1211.6 130 / 22998.7 -3.2 -0.0
2017-Jan-15 00:00S 78°00' W 164°54'9 8.7 130 / 19998.5 -3.6 -0.2
2017-Jan-14 23:00S 78°00' W 164°12'0 0.0 130 / 21998.3 -3.4 -0.0
2017-Jan-14 22:00S 78°00' W 164°12'1313.0 120 / 21997.2 -2.6 -0.0
2017-Jan-14 21:00S 77°48' W 164°36'8 7.9 120 / 21996.6 -1.3 -0.0
2017-Jan-14 20:00S 77°42' W 165°00'109 9.9 110 / 22995.9 -0.9 0.1
2017-Jan-14 09:00S 76°06' W 168°48'7 7.4 110 / 30990.4 -1.4 -0.8
2017-Jan-14 08:00S 76°00' W 169°06'1312.8 110 / 31989.7 -1.3 -0.4
2017-Jan-14 07:00S 75°48' W 169°24'4 4.4 110 / 32989.5 -1.2 -0.4
2017-Jan-14 06:00S 75°48' W 169°06'1212.0 120 / 31991.1 -0.5 -0.4
2017-Jan-14 05:00S 75°42' W 168°24'1010.4 110 / 31991.0 -0.5 -0.5
2017-Jan-14 04:00S 75°42' W 167°42'1010.4 110 / 32991.5 0.6 -0.4
2017-Jan-14 03:00S 75°42' W 167°00'1212.0 100 / 31992.1 1.9 -0.2
2017-Jan-14 02:00S 75°36' W 166°18'9 9.0 100 / 30992.8 1.8 -0.2
2017-Jan-14 01:00S 75°36' W 165°42'0 0.0 090 / 31993.6 -0.0 -0.6
2017-Jan-14 00:00S 75°36' W 165°42'0 0.0 090 / 29994.2 -0.9 -0.6
2017-Jan-13 23:00S 75°36' W 165°42'0 0.0 090 / 26994.8 -1.0 -0.6
2017-Jan-13 22:00S 75°36' W 165°42'8 8.4 090 / 24995.6 -0.9 -0.5
2017-Jan-13 21:00S 75°42' W 165°18'1313.4 090 / 22996.6 -1.0 -0.4
2017-Jan-13 20:00S 75°54' W 164°54'9 9.4 090 / 23997.7 -1.0 -0.1
2017-Jan-13 19:00S 76°00' W 164°24'8 8.3 090 / 22998.6 -1.0 -0.0
2017-Jan-13 18:00S 76°06' W 164°00'76 6.3 080 / 23999.5 -1.0 -0.1
2017-Jan-13 06:00S 76°36' W 159°06'1313.2 050 / 231003.1 -0.2 0.3
2017-Jan-13 05:00S 76°24' W 158°42'7 7.4 050 / 231003.1 -0.0 0.1
2017-Jan-13 04:00S 76°18' W 158°24'1312.7 050 / 221003.0 -0.0 -0.4
2017-Jan-13 03:00S 76°06' W 158°06'7 6.7 050 / 211002.8 -0.6 -0.5
2017-Jan-13 02:00S 76°00' W 157°54'1212.4 050 / 211002.7 -0.1 -0.7
2017-Jan-13 01:00S 75°48' W 157°42'8 8.4 050 / 191002.4 -0.4 -0.3
2017-Jan-13 00:00S 75°42' W 157°18'8 8.4 040 / 221002.6 -0.4 -0.6
2017-Jan-12 23:00S 75°36' W 156°54'0 0.0 040 / 231002.2 -0.8 -0.8
2017-Jan-12 22:00S 75°36' W 156°54'1 1.5 040 / 231002.0 -0.8 -0.9
2017-Jan-12 21:00S 75°36' W 157°00'0 0.0 050 / 231001.7 -0.8 -0.9
2017-Jan-12 20:00S 75°36' W 157°00'1 1.5 040 / 231001.3 -0.8 -0.9
2017-Jan-12 19:00S 75°36' W 156°54'7 7.5 040 / 221001.1 -0.9 -0.8
2017-Jan-12 18:00S 75°30' W 156°36'1313.4 040 / 221000.8 -0.7 -0.9
2017-Jan-12 17:00S 75°18' W 156°12'10 9.7 050 / 231000.7 -0.7 -0.9
2017-Jan-12 16:00S 75°12' W 155°42'10 9.8 050 / 221000.8 -0.3 -0.9
2017-Jan-12 15:00S 75°06' W 155°12'9 8.6 040 / 211001.0 -0.4 -1.0
2017-Jan-12 14:00S 75°00' W 154°48'1414.3 040 / 221001.1 -0.6 -0.9
2017-Jan-12 13:00S 74°48' W 154°18'87 7.3 040 / 231001.2 -1.0 -0.7
2017-Jan-12 01:00S 73°42' W 150°48'7 6.7 040 / 211000.7 -0.3 -1.5
2017-Jan-12 00:00S 73°42' W 150°24'7 6.9 040 / 191000.8 -0.9 -1.4
2017-Jan-11 23:00S 73°36' W 150°12'1313.0 040 / 181000.8 -0.4 -1.3
2017-Jan-11 22:00S 73°24' W 149°54'9 9.1 040 / 191000.9 -0.7 -1.3
2017-Jan-11 21:00S 73°18' W 149°30'8 7.9 040 / 171000.9 -0.6 -1.2
2017-Jan-11 20:00S 73°12' W 149°12'1313.1 040 / 171001.0 -0.5 -1.0
2017-Jan-11 19:00S 73°00' W 148°54'4 3.5 040 / 171001.0 -0.6 -1.0
2017-Jan-11 18:00S 73°00' W 148°42'9 9.2 050 / 151001.0 -0.7 -0.9
2017-Jan-11 17:00S 72°54' W 148°18'8 8.0 040 / 131001.2 -0.5 -0.9
2017-Jan-11 16:00S 72°48' W 148°00'9 9.3 040 / 111001.3 -0.8 -1.0
2017-Jan-11 15:00S 72°42' W 147°36'8 8.1 030 / 91001.4 -1.2 -0.8
2017-Jan-11 14:00S 72°36' W 147°18'9 9.4 020 / 81001.3 -1.2 -0.9
2017-Jan-11 13:00S 72°30' W 146°54'9 9.4 020 / 71001.4 -1.2 -0.9
2017-Jan-11 12:00S 72°24' W 146°30'7 7.0 350 / 61001.3 -0.9 -0.8
2017-Jan-11 11:00S 72°18' W 146°18'0 0.0 320 / 51001.1 -0.7 -0.9
2017-Jan-11 10:00S 72°18' W 146°18'0 0.0 330 / 51000.7 -0.4 -0.9
2017-Jan-11 09:00S 72°18' W 146°18'0 0.0 330 / 61000.2 -0.9 -1.1
2017-Jan-11 08:00S 72°18' W 146°18'0 0.0 320 / 4999.7 -0.9 -1.0
2017-Jan-11 07:00S 72°18' W 146°18'6 6.3 320 / 4999.2 -1.0 -0.9
2017-Jan-11 06:00S 72°12' W 146°12'9 9.2 320 / 3998.8 -1.0 -0.6
2017-Jan-11 05:00S 72°12' W 145°42'1111.0 270 / 4998.5 -1.0 -0.7
2017-Jan-11 04:00S 72°06' W 145°12'9 9.2 250 / 4998.1 -0.8 -0.9
2017-Jan-11 03:00S 72°06' W 144°42'1111.0 210 / 4997.4 -0.8 -0.9
2017-Jan-11 02:00S 72°00' W 144°12'1111.1 200 / 7996.7 -0.8 -0.8
2017-Jan-11 01:00S 71°54' W 143°42'9 9.3 190 / 10996.0 -0.6 -0.7
2017-Jan-11 00:00S 71°54' W 143°12'1312.7 190 / 9995.4 -0.9 -0.7
2017-Jan-10 23:00S 71°48' W 142°36'1111.1 190 / 9994.6 -0.8 -0.7
2017-Jan-10 22:00S 71°42' W 142°06'1111.2 170 / 9993.8 -0.8 -0.8
2017-Jan-10 21:00S 71°36' W 141°36'9 9.5 200 / 9993.1 -0.9 -0.8
2017-Jan-10 20:00S 71°36' W 141°06'10 9.7 210 / 8992.3 -0.9 -1.1
2017-Jan-10 19:00S 71°30' W 140°42'8 7.6 200 / 8991.6 -1.0 -1.2
2017-Jan-10 18:00S 71°30' W 140°18'8 8.3 200 / 10991.0 -1.3 -1.4
2017-Jan-10 17:00S 71°24' W 140°00'8 7.7 210 / 8990.3 -1.4 -1.3
2017-Jan-10 16:00S 71°24' W 139°36'2 1.9 200 / 9989.5 -1.5 -1.3
2017-Jan-10 15:00S 71°24' W 139°30'6 6.3 200 / 8989.0 -1.5 -1.2
2017-Jan-10 14:00S 71°18' W 139°24'10 9.8 190 / 10988.1 -1.5 -1.3
2017-Jan-10 13:00S 71°12' W 139°00'8 8.4 200 / 9987.3 -1.7 -1.3
2017-Jan-10 12:00S 71°06' W 138°42'8 7.8 200 / 10986.5 -1.5 -1.3
2017-Jan-10 11:00S 71°06' W 138°18'7 7.2 210 / 10985.6 -1.4 -1.2
2017-Jan-10 10:00S 71°00' W 138°06'1111.5 220 / 11984.8 -1.4 -1.1
2017-Jan-10 09:00S 70°54' W 137°36'8 8.4 230 / 10984.2 -1.5 -1.0
2017-Jan-10 08:00S 70°48' W 137°18'1211.6 250 / 10983.7 -1.6 -0.9
2017-Jan-10 07:00S 70°42' W 136°48'8 8.5 270 / 10983.3 -1.3 -0.9
2017-Jan-10 06:00S 70°36' W 136°30'2 2.0 290 / 11983.0 -1.2 -1.0
2017-Jan-10 05:00S 70°36' W 136°24'0 0.0 300 / 12982.8 -1.1 -1.0
2017-Jan-10 04:00S 70°36' W 136°24'0 0.0 300 / 14982.7 -1.2 -1.0
2017-Jan-10 03:00S 70°36' W 136°24'2 2.0 310 / 15982.6 -1.2 -1.0
2017-Jan-10 02:00S 70°36' W 136°30'0 0.0 310 / 16982.6 -1.1 -1.0
2017-Jan-10 01:00S 70°36' W 136°30'0 0.0 320 / 16982.7 -1.1 -1.1
2017-Jan-10 00:00S 70°36' W 136°30'0 0.0 320 / 16982.7 -1.1 -1.0
2017-Jan-09 23:00S 70°36' W 136°30'0 0.0 320 / 16982.8 -1.1 -1.0
2017-Jan-09 22:00S 70°36' W 136°30'0 0.0 320 / 16982.7 -1.0 -1.1
2017-Jan-09 21:00S 70°36' W 136°30'6 6.3 320 / 16982.6 -1.4 -1.1
2017-Jan-09 20:00S 70°30' W 136°24'1010.0 320 / 16982.9 -1.6 -1.1
2017-Jan-09 19:00S 70°24' W 136°00'9 8.5 320 / 15983.1 -1.6 -1.2
2017-Jan-09 18:00S 70°18' W 135°42'1010.1 320 / 15983.4 -1.6 -1.0
2017-Jan-09 17:00S 70°12' W 135°18'8 8.1 320 / 16983.5 -1.4 -1.0
2017-Jan-09 16:00S 70°12' W 134°54'1312.7 310 / 17983.8 -1.3 -0.8
2017-Jan-09 15:00S 70°00' W 134°42'6 6.2 310 / 17984.1 -1.3 -0.9
2017-Jan-09 14:00S 70°00' W 134°24'1010.2 310 / 20984.2 -1.2 -0.8
2017-Jan-09 13:00S 69°54' W 134°00'9 8.6 310 / 21984.4 -1.2 -0.9
2017-Jan-09 12:00S 69°48' W 133°42'9 8.6 320 / 21984.8 -1.1 -1.0
2017-Jan-09 11:00S 69°42' W 133°24'1010.3 320 / 23985.4 -1.0 -1.1
2017-Jan-09 10:00S 69°36' W 133°00'1010.3 320 / 23985.9 -1.0 -1.0
2017-Jan-09 09:00S 69°30' W 132°36'4410.9 320 / 22986.5 -0.8 -0.8
2017-Jan-09 05:00S 69°00' W 131°06'9 8.8 330 / 24989.1 -0.1 -0.5
2017-Jan-09 04:00S 68°54' W 130°48'1110.5 330 / 24989.8 -0.0 -0.3
2017-Jan-09 03:00S 68°48' W 130°24'1110.6 320 / 23990.5 -0.0 -0.2
2017-Jan-09 02:00S 68°42' W 130°00'9 8.9 320 / 23991.2 -0.0 -0.3
2017-Jan-09 01:00S 68°36' W 129°42'1110.6 320 / 24991.7 0.2 -0.0
2017-Jan-09 00:00S 68°30' W 129°18'9 8.9 320 / 23992.2 0.2 0.1
2017-Jan-08 23:00S 68°24' W 129°00'1110.7 320 / 23992.9 0.4 -0.0
2017-Jan-08 22:00S 68°18' W 128°36'7 7.5 330 / 23993.6 0.4 -0.0
2017-Jan-08 21:00S 68°12' W 128°24'0 0.0 330 / 26994.2 0.7 -0.0
2017-Jan-08 20:00S 68°12' W 128°24'0 0.0 330 / 26994.6 0.8 -0.0
2017-Jan-08 19:00S 68°12' W 128°24'0 0.0 330 / 23995.1 0.6 -0.0
2017-Jan-08 18:00S 68°12' W 128°24'1413.7 330 / 23995.3 0.3 -0.0
2017-Jan-08 17:00S 68°24' W 128°06'   330 / 23995.5 -0.0 -0.0
Track history (hours):
 
Tides and Currents Weather Stations Pressure Air Temp Water Temp Dewpoint Dewpoint Depression Visibility Wind Speed Wind Dir Waves Ship Positions

Oceanographic research ship Nathaniel B. Palmer (USA)

Contact: Ethan Norris, ethan.norris.contractor@usap.gov

Detailed information on ship capabilities available from University of Delaware's Ocean Information Center and ARCUS's ALIAS (Arctic Logistics Information and Support) project.

Owner: OFFSHORE SERVICE VESSELS, GALLIANO, LA. More information available from US FCC via Universal Licensing System and Coast Guard Vessel Documentation Center.

Last reported at 2017-Jan-18 17:00 UTC. Time now 2017-Jan-18 18:03 UTC.
Position S 77°48' E 166°30'.

Type: Other ship. MMSI: 366610000.

Wind from 180 at 3 knots

Barometer 1003.5 mb
Air temperature -7.1 ° C
Water temperature -1.4 ° C

Date/timePositionNaut miles runAvg speedWind from/ knotsBaromVisibWave heightAir tempDewpointWater temp
2017-Jan-18 17:00S 77°48' E 166°30'0 0.0 180 / 31003.5 -7.1 -1.4
2017-Jan-18 16:00S 77°48' E 166°30'0 0.0 350 / 11003.7 -6.5 -1.4
2017-Jan-18 15:00S 77°48' E 166°30'0 0.0 300 / 41003.8 -7.2 -1.4
2017-Jan-18 14:00S 77°48' E 166°30'0 0.0 080 / 71003.9 -3.9 -1.4
2017-Jan-18 13:00S 77°48' E 166°30'0 0.0 080 / 91004.2 -4.3 -1.4
2017-Jan-18 12:00S 77°48' E 166°30'0 0.0 080 / 101004.2 -4.3 -1.4
2017-Jan-18 11:00S 77°48' E 166°30'0 0.0 080 / 111004.2 -4.2 -1.4
2017-Jan-18 10:00S 77°48' E 166°30'0 0.0 080 / 101004.3 -4.1 -1.4
2017-Jan-18 09:00S 77°48' E 166°30'0 0.0 080 / 121004.3 -4.4 -1.4
2017-Jan-18 08:00S 77°48' E 166°30'1 1.3 090 / 151004.0 -4.5 -1.4
2017-Jan-18 07:00S 77°48' E 166°24'6 6.1 080 / 101004.6 -4.8 -1.4
2017-Jan-18 06:00S 77°42' E 166°18'1 1.3 080 / 131004.7 -5.4 -1.4
2017-Jan-18 05:00S 77°42' E 166°12'1 1.3 080 / 141004.6 -5.3 -1.4
2017-Jan-18 04:00S 77°42' E 166°06'1 1.3 100 / 141004.7 -5.1 -1.4
2017-Jan-18 03:00S 77°42' E 166°00'7 6.5 110 / 171004.7 -4.8 -1.4
2017-Jan-18 02:00S 77°36' E 165°48'6 6.1 120 / 181004.8 -4.8 -1.4
2017-Jan-18 01:00S 77°30' E 165°42'6 6.0 130 / 201004.7 -4.7 -1.4
2017-Jan-18 00:00S 77°24' E 165°42'0 0.0 140 / 201004.2 -4.2 -1.4
2017-Jan-17 23:00S 77°24' E 165°42'6 6.0 340 / 51005.1 -3.2 -1.4
2017-Jan-17 22:00S 77°18' E 165°42'6 6.0 010 / 71005.0 -2.2 -1.4
2017-Jan-17 21:00S 77°12' E 165°42'1 1.3 350 / 41005.1 -2.8 -1.4
2017-Jan-17 20:00S 77°12' E 165°48'7 6.6 1005.5 -3.7 -1.4
2017-Jan-17 19:00S 77°06' E 166°00'4 4.0 050 / 71005.3 -4.3 -1.4
2017-Jan-17 18:00S 77°06' E 166°18'7 6.6 060 / 41005.0 -3.1 -1.5
2017-Jan-17 17:00S 77°00' E 166°30'3 2.7 080 / 31005.0 -3.5 -1.5
2017-Jan-17 16:00S 77°00' E 166°42'3 2.7 100 / 21005.1 -4.1 -1.4
2017-Jan-17 15:00S 77°00' E 166°54'5 5.4 070 / 31005.3 -4.0 -1.3
2017-Jan-17 14:00S 77°00' E 167°18'1 1.3 100 / 41005.4 -3.6 -1.4
2017-Jan-17 13:00S 77°00' E 167°24'1 1.3 110 / 51005.5 -3.1 -1.2
2017-Jan-17 12:00S 77°00' E 167°18'6 6.0 130 / 61005.6 -3.3 -1.1
2017-Jan-17 11:00S 76°54' E 167°18'3 2.7 150 / 41005.5 -3.3 -1.3
2017-Jan-17 10:00S 76°54' E 167°30'5 5.4 120 / 41005.3 -2.6 -1.3
2017-Jan-17 09:00S 76°54' E 167°54'7 7.2 130 / 51004.9 -2.1 -1.6
2017-Jan-17 08:00S 77°00' E 168°12'6 6.1 120 / 51004.8 -1.9 -1.5
2017-Jan-17 07:00S 77°06' E 168°18'4 4.0 120 / 41004.6 -1.8 -1.6
2017-Jan-17 06:00S 77°06' E 168°36'9 9.4 130 / 41004.4 -1.4 -0.3
2017-Jan-17 05:00S 77°06' E 169°18'1212.2 130 / 31004.3 -1.7 0.3
2017-Jan-17 04:00S 77°12' E 170°06'1110.6 130 / 51004.0 -2.1 0.2
2017-Jan-17 03:00S 77°12' E 170°54'1212.2 140 / 41004.1 -3.2 -0.2
2017-Jan-17 02:00S 77°18' E 171°42'1110.6 150 / 51004.1 -4.2 -0.1
2017-Jan-17 01:00S 77°18' E 172°30'1110.6 150 / 61004.1 -6.1 -0.3
2017-Jan-17 00:00S 77°18' E 173°18'1313.3 140 / 61004.0 -8.2 -0.6
2017-Jan-16 23:00S 77°24' E 174°12'1211.8 150 / 71003.7 -9.3 -0.5
2017-Jan-16 22:00S 77°24' E 175°06'1313.2 150 / 91003.6 -9.9 -0.3
2017-Jan-16 21:00S 77°30' E 176°00'1110.9 150 / 81003.6 -9.2 -0.5
2017-Jan-16 20:00S 77°36' E 176°42'1010.3 130 / 71003.6 -9.5 -0.7
2017-Jan-16 19:00S 77°36' E 177°30'8 7.9 150 / 61003.2 -10.7 -0.5
2017-Jan-16 18:00S 77°42' E 177°54'7 7.1 140 / 61002.8 -11.2 -0.6
2017-Jan-16 17:00S 77°36' E 178°12'1313.1 140 / 81001.6 -9.0 -0.4
2017-Jan-16 16:00S 77°24' E 178°36'7 7.2 150 / 91000.9 -7.0 -0.4
2017-Jan-16 15:00S 77°18' E 178°54'3812.5 180 / 81000.9 -4.3 -0.3
2017-Jan-16 12:00S 76°42' E 179°42'869868.7 220 / 81000.6 -1.7 0.2
2017-Jan-16 11:00S 76°36' W 117°36'868868.5 220 / 51000.4 -1.5 0.3
2017-Jan-16 10:00S 76°24' W 179°36'1312.7 200 / 31000.0 -0.8 0.3
2017-Jan-16 09:00S 76°12' W 179°18'1312.8 120 / 5999.4 -0.8 0.2
2017-Jan-16 08:00S 76°00' W 179°00'7 6.7 110 / 8999.0 -0.8 0.1
2017-Jan-16 07:00S 75°54' W 178°48'6 5.8 120 / 8999.1 -0.7 0.1
2017-Jan-16 06:00S 75°54' W 178°24'1211.7 120 / 9998.7 -1.0 -0.0
2017-Jan-16 05:00S 75°54' W 177°36'1010.2 110 / 9998.6 -0.8 -0.0
2017-Jan-16 04:00S 75°54' W 176°54'1211.7 110 / 10998.5 -0.7 -0.0
2017-Jan-16 03:00S 75°54' W 176°06'1211.7 120 / 11998.4 -0.8 -0.2
2017-Jan-16 02:00S 75°54' W 175°18'1010.2 120 / 11998.3 -0.8 -0.3
2017-Jan-16 01:00S 75°54' W 174°36'6 5.8 130 / 12998.2 -1.3 -0.3
2017-Jan-16 00:00S 75°54' W 174°12'6 6.0 130 / 11998.1 -1.4 -0.7
2017-Jan-15 23:00S 76°00' W 174°12'1212.0 130 / 13998.1 -1.7 -0.6
2017-Jan-15 22:00S 76°12' W 174°12'1212.0 130 / 14998.1 -1.7 -0.6
2017-Jan-15 21:00S 76°24' W 174°12'1212.0 140 / 15998.1 -1.6 -0.4
2017-Jan-15 20:00S 76°36' W 174°12'6 6.0 140 / 15998.1 -1.4 -0.2
2017-Jan-15 19:00S 76°42' W 174°12'1212.1 150 / 16998.2 -1.4 -0.1
2017-Jan-15 18:00S 76°54' W 174°06'1212.0 150 / 16998.2 -1.4 -0.2
2017-Jan-15 17:00S 77°06' W 174°06'1212.0 150 / 15998.4 -1.5 -0.1
2017-Jan-15 16:00S 77°18' W 174°06'65 8.2 150 / 15998.7 -1.7 -0.1
2017-Jan-15 08:00S 78°12' W 171°12'1413.6 170 / 19999.7 -6.7 -0.0
2017-Jan-15 07:00S 78°18' W 170°12'9 8.5 170 / 17999.4 -6.5 -0.1
2017-Jan-15 06:00S 78°18' W 169°30'5 4.9 170 / 19999.3 -6.5 -0.3
2017-Jan-15 05:00S 78°18' W 169°06'1010.4 160 / 24998.1 -5.0 -0.0
2017-Jan-15 04:00S 78°12' W 168°24'1312.6 150 / 21998.6 -4.1 -0.0
2017-Jan-15 03:00S 78°06' W 167°30'1111.1 150 / 17998.8 -3.3 -0.0
2017-Jan-15 02:00S 78°06' W 166°36'1111.1 130 / 17998.9 -2.8 -0.1
2017-Jan-15 01:00S 78°06' W 165°42'1211.6 130 / 22998.7 -3.2 -0.0
2017-Jan-15 00:00S 78°00' W 164°54'9 8.7 130 / 19998.5 -3.6 -0.2
2017-Jan-14 23:00S 78°00' W 164°12'0 0.0 130 / 21998.3 -3.4 -0.0
2017-Jan-14 22:00S 78°00' W 164°12'1313.0 120 / 21997.2 -2.6 -0.0
2017-Jan-14 21:00S 77°48' W 164°36'8 7.9 120 / 21996.6 -1.3 -0.0
2017-Jan-14 20:00S 77°42' W 165°00'109 9.9 110 / 22995.9 -0.9 0.1
2017-Jan-14 09:00S 76°06' W 168°48'7 7.4 110 / 30990.4 -1.4 -0.8
2017-Jan-14 08:00S 76°00' W 169°06'1312.8 110 / 31989.7 -1.3 -0.4
2017-Jan-14 07:00S 75°48' W 169°24'4 4.4 110 / 32989.5 -1.2 -0.4
2017-Jan-14 06:00S 75°48' W 169°06'1212.0 120 / 31991.1 -0.5 -0.4
2017-Jan-14 05:00S 75°42' W 168°24'1010.4 110 / 31991.0 -0.5 -0.5
2017-Jan-14 04:00S 75°42' W 167°42'1010.4 110 / 32991.5 0.6 -0.4
2017-Jan-14 03:00S 75°42' W 167°00'1212.0 100 / 31992.1 1.9 -0.2
2017-Jan-14 02:00S 75°36' W 166°18'9 9.0 100 / 30992.8 1.8 -0.2
2017-Jan-14 01:00S 75°36' W 165°42'0 0.0 090 / 31993.6 -0.0 -0.6
2017-Jan-14 00:00S 75°36' W 165°42'0 0.0 090 / 29994.2 -0.9 -0.6
2017-Jan-13 23:00S 75°36' W 165°42'0 0.0 090 / 26994.8 -1.0 -0.6
2017-Jan-13 22:00S 75°36' W 165°42'8 8.4 090 / 24995.6 -0.9 -0.5
2017-Jan-13 21:00S 75°42' W 165°18'1313.4 090 / 22996.6 -1.0 -0.4
2017-Jan-13 20:00S 75°54' W 164°54'9 9.4 090 / 23997.7 -1.0 -0.1
2017-Jan-13 19:00S 76°00' W 164°24'8 8.3 090 / 22998.6 -1.0 -0.0
2017-Jan-13 18:00S 76°06' W 164°00'76 6.3 080 / 23999.5 -1.0 -0.1
2017-Jan-13 06:00S 76°36' W 159°06'1313.2 050 / 231003.1 -0.2 0.3
2017-Jan-13 05:00S 76°24' W 158°42'7 7.4 050 / 231003.1 -0.0 0.1
2017-Jan-13 04:00S 76°18' W 158°24'1312.7 050 / 221003.0 -0.0 -0.4
2017-Jan-13 03:00S 76°06' W 158°06'7 6.7 050 / 211002.8 -0.6 -0.5
2017-Jan-13 02:00S 76°00' W 157°54'1212.4 050 / 211002.7 -0.1 -0.7
2017-Jan-13 01:00S 75°48' W 157°42'8 8.4 050 / 191002.4 -0.4 -0.3
2017-Jan-13 00:00S 75°42' W 157°18'8 8.4 040 / 221002.6 -0.4 -0.6
2017-Jan-12 23:00S 75°36' W 156°54'0 0.0 040 / 231002.2 -0.8 -0.8
2017-Jan-12 22:00S 75°36' W 156°54'1 1.5 040 / 231002.0 -0.8 -0.9
2017-Jan-12 21:00S 75°36' W 157°00'0 0.0 050 / 231001.7 -0.8 -0.9
2017-Jan-12 20:00S 75°36' W 157°00'1 1.5 040 / 231001.3 -0.8 -0.9
2017-Jan-12 19:00S 75°36' W 156°54'7 7.5 040 / 221001.1 -0.9 -0.8
2017-Jan-12 18:00S 75°30' W 156°36'1313.4 040 / 221000.8 -0.7 -0.9
2017-Jan-12 17:00S 75°18' W 156°12'10 9.7 050 / 231000.7 -0.7 -0.9
2017-Jan-12 16:00S 75°12' W 155°42'10 9.8 050 / 221000.8 -0.3 -0.9
2017-Jan-12 15:00S 75°06' W 155°12'9 8.6 040 / 211001.0 -0.4 -1.0
2017-Jan-12 14:00S 75°00' W 154°48'1414.3 040 / 221001.1 -0.6 -0.9
2017-Jan-12 13:00S 74°48' W 154°18'87 7.3 040 / 231001.2 -1.0 -0.7
2017-Jan-12 01:00S 73°42' W 150°48'7 6.7 040 / 211000.7 -0.3 -1.5
2017-Jan-12 00:00S 73°42' W 150°24'7 6.9 040 / 191000.8 -0.9 -1.4
2017-Jan-11 23:00S 73°36' W 150°12'1313.0 040 / 181000.8 -0.4 -1.3
2017-Jan-11 22:00S 73°24' W 149°54'9 9.1 040 / 191000.9 -0.7 -1.3
2017-Jan-11 21:00S 73°18' W 149°30'8 7.9 040 / 171000.9 -0.6 -1.2
2017-Jan-11 20:00S 73°12' W 149°12'1313.1 040 / 171001.0 -0.5 -1.0
2017-Jan-11 19:00S 73°00' W 148°54'4 3.5 040 / 171001.0 -0.6 -1.0
2017-Jan-11 18:00S 73°00' W 148°42'9 9.2 050 / 151001.0 -0.7 -0.9
2017-Jan-11 17:00S 72°54' W 148°18'8 8.0 040 / 131001.2 -0.5 -0.9
2017-Jan-11 16:00S 72°48' W 148°00'9 9.3 040 / 111001.3 -0.8 -1.0
2017-Jan-11 15:00S 72°42' W 147°36'8 8.1 030 / 91001.4 -1.2 -0.8
2017-Jan-11 14:00S 72°36' W 147°18'9 9.4 020 / 81001.3 -1.2 -0.9
2017-Jan-11 13:00S 72°30' W 146°54'9 9.4 020 / 71001.4 -1.2 -0.9
2017-Jan-11 12:00S 72°24' W 146°30'7 7.0 350 / 61001.3 -0.9 -0.8
2017-Jan-11 11:00S 72°18' W 146°18'0 0.0 320 / 51001.1 -0.7 -0.9
2017-Jan-11 10:00S 72°18' W 146°18'0 0.0 330 / 51000.7 -0.4 -0.9
2017-Jan-11 09:00S 72°18' W 146°18'0 0.0 330 / 61000.2 -0.9 -1.1
2017-Jan-11 08:00S 72°18' W 146°18'0 0.0 320 / 4999.7 -0.9 -1.0
2017-Jan-11 07:00S 72°18' W 146°18'6 6.3 320 / 4999.2 -1.0 -0.9
2017-Jan-11 06:00S 72°12' W 146°12'9 9.2 320 / 3998.8 -1.0 -0.6
2017-Jan-11 05:00S 72°12' W 145°42'1111.0 270 / 4998.5 -1.0 -0.7
2017-Jan-11 04:00S 72°06' W 145°12'9 9.2 250 / 4998.1 -0.8 -0.9
2017-Jan-11 03:00S 72°06' W 144°42'1111.0 210 / 4997.4 -0.8 -0.9
2017-Jan-11 02:00S 72°00' W 144°12'1111.1 200 / 7996.7 -0.8 -0.8
2017-Jan-11 01:00S 71°54' W 143°42'9 9.3 190 / 10996.0 -0.6 -0.7
2017-Jan-11 00:00S 71°54' W 143°12'1312.7 190 / 9995.4 -0.9 -0.7
2017-Jan-10 23:00S 71°48' W 142°36'1111.1 190 / 9994.6 -0.8 -0.7
2017-Jan-10 22:00S 71°42' W 142°06'1111.2 170 / 9993.8 -0.8 -0.8
2017-Jan-10 21:00S 71°36' W 141°36'9 9.5 200 / 9993.1 -0.9 -0.8
2017-Jan-10 20:00S 71°36' W 141°06'10 9.7 210 / 8992.3 -0.9 -1.1
2017-Jan-10 19:00S 71°30' W 140°42'8 7.6 200 / 8991.6 -1.0 -1.2
2017-Jan-10 18:00S 71°30' W 140°18'8 8.3 200 / 10991.0 -1.3 -1.4
2017-Jan-10 17:00S 71°24' W 140°00'8 7.7 210 / 8990.3 -1.4 -1.3
2017-Jan-10 16:00S 71°24' W 139°36'2 1.9 200 / 9989.5 -1.5 -1.3
2017-Jan-10 15:00S 71°24' W 139°30'6 6.3 200 / 8989.0 -1.5 -1.2
2017-Jan-10 14:00S 71°18' W 139°24'10 9.8 190 / 10988.1 -1.5 -1.3
2017-Jan-10 13:00S 71°12' W 139°00'8 8.4 200 / 9987.3 -1.7 -1.3
2017-Jan-10 12:00S 71°06' W 138°42'8 7.8 200 / 10986.5 -1.5 -1.3
2017-Jan-10 11:00S 71°06' W 138°18'7 7.2 210 / 10985.6 -1.4 -1.2
2017-Jan-10 10:00S 71°00' W 138°06'1111.5 220 / 11984.8 -1.4 -1.1
2017-Jan-10 09:00S 70°54' W 137°36'8 8.4 230 / 10984.2 -1.5 -1.0
2017-Jan-10 08:00S 70°48' W 137°18'1211.6 250 / 10983.7 -1.6 -0.9
2017-Jan-10 07:00S 70°42' W 136°48'8 8.5 270 / 10983.3 -1.3 -0.9
2017-Jan-10 06:00S 70°36' W 136°30'2 2.0 290 / 11983.0 -1.2 -1.0
2017-Jan-10 05:00S 70°36' W 136°24'0 0.0 300 / 12982.8 -1.1 -1.0
2017-Jan-10 04:00S 70°36' W 136°24'0 0.0 300 / 14982.7 -1.2 -1.0
2017-Jan-10 03:00S 70°36' W 136°24'2 2.0 310 / 15982.6 -1.2 -1.0
2017-Jan-10 02:00S 70°36' W 136°30'0 0.0 310 / 16982.6 -1.1 -1.0
2017-Jan-10 01:00S 70°36' W 136°30'0 0.0 320 / 16982.7 -1.1 -1.1
2017-Jan-10 00:00S 70°36' W 136°30'0 0.0 320 / 16982.7 -1.1 -1.0
2017-Jan-09 23:00S 70°36' W 136°30'0 0.0 320 / 16982.8 -1.1 -1.0
2017-Jan-09 22:00S 70°36' W 136°30'0 0.0 320 / 16982.7 -1.0 -1.1
2017-Jan-09 21:00S 70°36' W 136°30'6 6.3 320 / 16982.6 -1.4 -1.1
2017-Jan-09 20:00S 70°30' W 136°24'1010.0 320 / 16982.9 -1.6 -1.1
2017-Jan-09 19:00S 70°24' W 136°00'9 8.5 320 / 15983.1 -1.6 -1.2
2017-Jan-09 18:00S 70°18' W 135°42'1010.1 320 / 15983.4 -1.6 -1.0
2017-Jan-09 17:00S 70°12' W 135°18'8 8.1 320 / 16983.5 -1.4 -1.0
2017-Jan-09 16:00S 70°12' W 134°54'1312.7 310 / 17983.8 -1.3 -0.8
2017-Jan-09 15:00S 70°00' W 134°42'6 6.2 310 / 17984.1 -1.3 -0.9
2017-Jan-09 14:00S 70°00' W 134°24'1010.2 310 / 20984.2 -1.2 -0.8
2017-Jan-09 13:00S 69°54' W 134°00'9 8.6 310 / 21984.4 -1.2 -0.9
2017-Jan-09 12:00S 69°48' W 133°42'9 8.6 320 / 21984.8 -1.1 -1.0
2017-Jan-09 11:00S 69°42' W 133°24'1010.3 320 / 23985.4 -1.0 -1.1
2017-Jan-09 10:00S 69°36' W 133°00'1010.3 320 / 23985.9 -1.0 -1.0
2017-Jan-09 09:00S 69°30' W 132°36'4410.9 320 / 22986.5 -0.8 -0.8
2017-Jan-09 05:00S 69°00' W 131°06'9 8.8 330 / 24989.1 -0.1 -0.5
2017-Jan-09 04:00S 68°54' W 130°48'1110.5 330 / 24989.8 -0.0 -0.3
2017-Jan-09 03:00S 68°48' W 130°24'1110.6 320 / 23990.5 -0.0 -0.2
2017-Jan-09 02:00S 68°42' W 130°00'9 8.9 320 / 23991.2 -0.0 -0.3
2017-Jan-09 01:00S 68°36' W 129°42'1110.6 320 / 24991.7 0.2 -0.0
2017-Jan-09 00:00S 68°30' W 129°18'9 8.9 320 / 23992.2 0.2 0.1
2017-Jan-08 23:00S 68°24' W 129°00'1110.7 320 / 23992.9 0.4 -0.0
2017-Jan-08 22:00S 68°18' W 128°36'7 7.5 330 / 23993.6 0.4 -0.0
2017-Jan-08 21:00S 68°12' W 128°24'0 0.0 330 / 26994.2 0.7 -0.0
2017-Jan-08 20:00S 68°12' W 128°24'0 0.0 330 / 26994.6 0.8 -0.0
2017-Jan-08 19:00S 68°12' W 128°24'0 0.0 330 / 23995.1 0.6 -0.0
2017-Jan-08 18:00S 68°12' W 128°24'1413.7 330 / 23995.3 0.3 -0.0
2017-Jan-08 17:00S 68°24' W 128°06'   330 / 23995.5 -0.0 -0.0

Dump ship's entire track history